23:56
Airports
History
Links
Donate
Help keep this website running!
PayPal
Bitcoin
This page is community maintained. The information is intended for PC simulator navigation or reference.
Always use approved charts for navigation.
SSCE
Aeroclube
Aeroclube (SSCE)
Bagé, Rio Grande do Sul, Brazil (96402)
4
Lat/Lng:31° 19' 40" S / 54° 8' 5" W
-31.327778 / -54.134722
Elevation:722'ft / 220mMSL
ID / ICAO:SSCE
Runways:1
Longest:01-19
Grass 628m / 2,059ft
Nearby Weather19:00 GMT 2017-12-12
Nearby weather at SBBG, Comandante Gustavo Kraemer located 4.5 nautical miles from SSCE
Altimeter: 29.88
Visibility: 6.2 statute miles
Wind: 8 knots (from 070°)
Temp: 31°c / 88°f
Humidity: 25.6%

METAR: SBBG 121900Z 07008KT CAVOK 31/09 Q1012

(Powered by phpweather)
Runway 01 / 19
Dimensions:627.6 x 50m 2059' x 164'ft
Surface:Grass
Runway 01 [A]Runway 19 [B]
Heading:357°TH 177°TH
Lat:
Lng:
31° 19' 50.26"S
54° 8' 4.45"W
31° 19' 29.74"S
54° 8' 5.55"W
User Notes and Comments
31° 19' 40" S / 54° 8' 5" W
Distance To
Airport ID:
Nearby Airports
4 Aeromis 2.8 NM
SJXA NNW 332°
(U) Comandante Gustavo Kraemer 4.5 NM
SBBG ( WX ) SSE 163°
(U) Ana Paula 28.2 NM
SIAP S 174°
(U) Candiota 28.6 NM
SSIO ESE 113°
4 Refugio 34.4 NM
SSRQ NW 325°
(C) Dom Pedrito 38.9 NM
SSDP NW 306°
(C) Vichadero 41.5 NM
SUVO SW 223°
VFR Chart
Flight Planning at SkyVector.com